Time;durP1;ratioP1;P1;durP2;ratioP2;P2;SDS_P1;SDS_P2;PMS_P1;PMS_P2;Temp;Humidity;BMP_temperature;BMP_pressure;BME280_temperature;BME280_humidity;BME280_pressure;Samples;Min_cycle;Max_cycle;Signal;HPM_P1;HPM_P2
2021/05/25 00:00:20;;;;;;;9.02;5.93;;;;;;;16.70;100.00;97749.69;5059999;28;20027;-80
2021/05/25 00:02:47;;;;;;;12.40;6.50;;;;;;;16.66;100.00;97740.16;5048641;28;20149;-81
2021/05/25 00:05:16;;;;;;;10.75;6.03;;;;;;;16.66;100.00;97744.69;5072802;28;20028;-81
2021/05/25 00:07:42;;;;;;;10.75;6.32;;;;;;;16.58;100.00;97739.91;5075792;28;20077;-81
2021/05/25 00:10:09;;;;;;;13.13;6.97;;;;;;;16.60;100.00;97743.34;5058900;28;20483;-80
2021/05/25 00:12:35;;;;;;;10.45;6.43;;;;;;;16.54;100.00;97741.16;5076290;28;20024;-80
2021/05/25 00:15:01;;;;;;;18.40;7.05;;;;;;;16.50;100.00;97736.09;5075506;28;20020;-81
2021/05/25 00:17:26;;;;;;;16.13;6.82;;;;;;;16.35;100.00;97721.16;5058015;28;20028;-80
2021/05/25 00:19:52;;;;;;;14.38;7.30;;;;;;;16.36;100.00;97737.25;5075502;28;20028;-80
2021/05/25 00:22:18;;;;;;;18.83;8.15;;;;;;;16.37;100.00;97721.88;5091981;28;20092;-81
2021/05/25 00:24:43;;;;;;;21.27;7.50;;;;;;;16.37;100.00;97729.97;5076292;28;20111;-80
2021/05/25 00:27:09;;;;;;;17.17;7.40;;;;;;;16.38;100.00;97726.31;5075985;28;20743;-80
2021/05/25 00:29:35;;;;;;;16.27;7.10;;;;;;;16.34;100.00;97714.91;5075250;28;20036;-80
2021/05/25 00:32:00;;;;;;;18.17;7.78;;;;;;;16.29;100.00;97719.84;5059561;28;20020;-81
2021/05/25 00:34:26;;;;;;;17.83;7.22;;;;;;;16.21;100.00;97706.94;5075494;28;20106;-79
2021/05/25 00:36:52;;;;;;;16.23;7.00;;;;;;;16.23;100.00;97712.25;5076112;28;20024;-80
2021/05/25 00:39:17;;;;;;;13.30;7.07;;;;;;;16.24;100.00;97708.56;5075195;28;20107;-81
2021/05/25 00:41:43;;;;;;;22.20;7.03;;;;;;;16.26;100.00;97698.50;5091897;28;20051;-80
2021/05/25 00:44:09;;;;;;;16.48;7.10;;;;;;;16.22;100.00;97705.97;5059167;28;20032;-81
2021/05/25 00:46:36;;;;;;;12.88;6.95;;;;;;;16.17;100.00;97686.63;5058279;28;20032;-80
2021/05/25 00:49:05;;;;;;;12.90;6.65;;;;;;;16.21;100.00;97692.63;5075615;28;20407;-81
2021/05/25 00:51:32;;;;;;;15.98;7.00;;;;;;;16.14;100.00;97686.00;5058494;28;20039;-80
2021/05/25 00:53:58;;;;;;;16.30;6.00;;;;;;;16.17;100.00;97686.63;5091593;28;20514;-81
2021/05/25 00:56:23;;;;;;;10.75;5.60;;;;;;;16.19;100.00;97683.78;5058767;28;20037;-81
2021/05/25 00:58:51;;;;;;;7.25;5.53;;;;;;;16.20;100.00;97683.66;5075386;28;20024;-81
2021/05/25 01:01:17;;;;;;;7.57;5.70;;;;;;;16.14;100.00;97669.81;5059683;28;20028;-80
2021/05/25 01:03:43;;;;;;;8.20;5.63;;;;;;;16.10;100.00;97662.94;5059540;28;20068;-81
2021/05/25 01:06:08;;;;;;;10.73;5.82;;;;;;;16.12;100.00;97664.53;5058735;28;20031;-81
2021/05/25 01:08:37;;;;;;;10.40;5.72;;;;;;;16.12;100.00;97677.16;5074981;28;20032;-80
2021/05/25 01:11:10;;;;;;;14.45;6.10;;;;;;;16.14;100.00;97680.59;5092931;28;20053;-79
2021/05/25 01:13:49;;;;;;;14.57;6.47;;;;;;;16.09;100.00;97680.09;5063097;28;20035;-80
2021/05/25 01:16:16;;;;;;;11.07;6.20;;;;;;;16.09;100.00;97678.25;5059903;28;20039;-80
2021/05/25 01:18:42;;;;;;;15.80;7.15;;;;;;;15.96;100.00;97680.28;5057054;28;20058;-79
2021/05/25 01:21:08;;;;;;;15.38;6.78;;;;;;;16.00;100.00;97680.84;5075060;28;20495;-80
2021/05/25 01:23:35;;;;;;;14.30;6.35;;;;;;;16.01;100.00;97669.09;5093076;28;20024;-81
2021/05/25 01:26:02;;;;;;;10.70;6.35;;;;;;;16.15;100.00;97672.38;5058736;28;20081;-81
2021/05/25 01:28:28;;;;;;;16.13;6.13;;;;;;;16.34;100.00;97679.81;5074729;28;20109;-80
2021/05/25 01:30:54;;;;;;;10.63;5.10;;;;;;;17.50;98.60;97681.56;5057481;28;20028;-81
2021/05/25 01:33:24;;;;;;;9.20;4.78;;;;;;;18.35;91.88;97693.75;5059182;28;20519;-81
2021/05/25 01:35:50;;;;;;;6.72;4.35;;;;;;;19.20;85.33;97689.38;5094819;28;20020;-80
2021/05/25 01:38:16;;;;;;;9.27;4.05;;;;;;;19.59;82.43;97686.63;5059425;28;20034;-80
2021/05/25 01:40:43;;;;;;;11.77;4.38;;;;;;;19.72;81.24;97693.41;5059624;28;20032;-80
2021/05/25 01:43:08;;;;;;;11.23;3.83;;;;;;;19.94;79.44;97684.03;5076273;28;20031;-80
2021/05/25 01:45:34;;;;;;;9.75;4.05;;;;;;;19.99;78.94;97685.28;5092758;28;20513;-80
2021/05/25 01:48:03;;;;;;;7.50;3.63;;;;;;;20.08;77.85;97685.41;5092427;28;20035;-81
2021/05/25 01:50:29;;;;;;;8.38;3.78;;;;;;;20.05;78.09;97702.00;5074169;28;20032;-81
2021/05/25 01:53:01;;;;;;;9.02;4.38;;;;;;;20.13;77.59;97672.22;5074103;28;20039;-81
2021/05/25 01:55:29;;;;;;;12.07;4.18;;;;;;;20.09;77.64;97665.41;5057069;28;20400;-81
2021/05/25 01:57:57;;;;;;;6.43;4.38;;;;;;;20.02;77.66;97652.44;5091600;28;20032;-81
2021/05/25 02:00:23;;;;;;;7.57;3.83;;;;;;;19.90;77.67;97647.34;5057205;28;20115;-81
2021/05/25 02:02:49;;;;;;;4.95;3.67;;;;;;;19.89;77.75;97651.06;5073573;28;20066;-81
2021/05/25 02:05:17;;;;;;;7.65;3.55;;;;;;;19.83;78.19;97671.53;5073990;28;20117;-81
2021/05/25 02:07:50;;;;;;;13.38;4.20;;;;;;;19.86;78.23;97665.78;5057197;28;20181;-81
2021/05/25 02:10:27;;;;;;;4.35;3.22;;;;;;;19.78;78.39;97659.41;5074137;28;20175;-80
2021/05/25 02:12:56;;;;;;;8.70;4.15;;;;;;;19.79;78.00;97672.81;5056937;28;20035;-81
2021/05/25 02:15:22;;;;;;;17.65;3.67;;;;;;;19.71;78.08;97667.28;5073625;28;20487;-81
2021/05/25 02:17:48;;;;;;;12.55;3.67;;;;;;;19.75;78.18;97676.81;5090257;28;20111;-81
2021/05/25 02:20:13;;;;;;;14.68;4.35;;;;;;;19.68;78.14;97662.16;5090356;28;20024;-81
2021/05/25 02:22:39;;;;;;;5.30;3.90;;;;;;;19.63;78.29;97678.00;5074150;28;20031;-81
2021/05/25 02:25:05;;;;;;;7.30;4.03;;;;;;;19.58;78.12;97698.47;5073829;28;20034;-81
2021/05/25 02:27:31;;;;;;;5.40;3.75;;;;;;;19.54;78.27;97706.03;5078214;28;20044;-81
2021/05/25 02:29:57;;;;;;;4.15;3.28;;;;;;;19.49;78.52;97692.06;5061103;28;20100;-81
2021/05/25 02:32:22;;;;;;;10.77;4.13;;;;;;;19.48;78.17;97701.19;5060713;28;20028;-81
2021/05/25 02:34:48;;;;;;;6.75;3.42;;;;;;;19.45;78.43;97696.94;5078161;28;20016;-80
2021/05/25 02:37:13;;;;;;;7.75;3.92;;;;;;;19.47;78.05;97694.06;5078327;28;20027;-80
2021/05/25 02:39:39;;;;;;;5.65;3.13;;;;;;;19.40;78.50;97698.38;5078195;28;20503;-81
2021/05/25 02:42:04;;;;;;;3.97;2.72;;;;;;;19.35;78.27;97706.91;5061279;28;20380;-81
2021/05/25 02:44:30;;;;;;;10.63;3.70;;;;;;;19.33;78.08;97702.63;5077276;28;20059;-81
2021/05/25 02:46:56;;;;;;;6.85;3.40;;;;;;;19.30;77.93;97708.34;5060813;28;20028;-80
2021/05/25 02:49:21;;;;;;;6.55;3.88;;;;;;;19.20;77.73;97707.50;5060964;28;20110;-80
2021/05/25 02:51:47;;;;;;;10.50;3.45;;;;;;;19.23;77.64;97699.06;5077587;28;20032;-81
2021/05/25 02:54:13;;;;;;;9.88;3.05;;;;;;;19.21;77.69;97711.91;5076767;28;20043;-80
2021/05/25 02:56:38;;;;;;;6.25;2.40;;;;;;;19.19;77.54;97719.34;5077016;28;20080;-80
2021/05/25 02:59:04;;;;;;;6.60;3.60;;;;;;;19.16;77.69;97701.53;5077021;28;20020;-80
2021/05/25 03:01:29;;;;;;;15.48;4.10;;;;;;;19.18;78.19;97714.94;5060631;28;20501;-81
2021/05/25 03:03:55;;;;;;;4.72;3.58;;;;;;;19.14;77.86;97713.50;5076659;28;20032;-80
2021/05/25 03:06:20;;;;;;;4.70;3.55;;;;;;;19.08;78.15;97711.34;5095469;28;20042;-80
2021/05/25 03:08:46;;;;;;;10.10;3.75;;;;;;;19.13;77.73;97725.34;5060186;28;20024;-80
2021/05/25 03:11:12;;;;;;;3.25;2.92;;;;;;;19.14;77.21;97710.78;5076655;28;20036;-80
2021/05/25 03:13:37;;;;;;;4.68;3.55;;;;;;;19.12;77.46;97715.50;5093992;28;20380;-81
2021/05/25 03:16:03;;;;;;;24.52;3.50;;;;;;;19.19;77.00;97739.22;5095045;28;20039;-80
2021/05/25 03:18:29;;;;;;;7.75;3.20;;;;;;;19.17;76.86;97743.91;5076856;28;20031;-81
2021/05/25 03:20:54;;;;;;;7.38;3.20;;;;;;;19.19;76.61;97739.22;5077018;28;20032;-81
2021/05/25 03:23:20;;;;;;;7.93;3.40;;;;;;;19.26;76.33;97753.03;5093691;28;20024;-81
2021/05/25 03:25:47;;;;;;;4.55;3.30;;;;;;;19.19;76.72;97744.63;5076808;28;20031;-81
2021/05/25 03:28:13;;;;;;;6.97;3.53;;;;;;;19.10;76.66;97755.47;5076858;28;20024;-81
2021/05/25 03:30:39;;;;;;;4.55;3.70;;;;;;;19.18;76.93;97761.03;5094559;28;20024;-81
2021/05/25 03:33:06;;;;;;;9.40;3.83;;;;;;;19.17;77.31;97751.16;5076073;28;20493;-81
2021/05/25 03:35:31;;;;;;;11.05;3.80;;;;;;;19.19;77.65;97760.03;5076305;28;20066;-81
2021/05/25 03:37:57;;;;;;;5.65;3.60;;;;;;;19.23;76.87;97764.16;5076406;28;20440;-80
2021/05/25 03:40:24;;;;;;;8.15;3.50;;;;;;;19.33;76.38;97765.03;5076412;28;20031;-80
2021/05/25 03:42:51;;;;;;;4.82;3.60;;;;;;;19.27;76.88;97771.88;5059583;28;20403;-80
2021/05/25 03:45:17;;;;;;;7.55;3.90;;;;;;;19.29;77.32;97778.00;5076403;28;20024;-80
2021/05/25 03:47:43;;;;;;;6.25;3.78;;;;;;;19.29;78.12;97771.72;5060008;28;20061;-81
2021/05/25 03:50:10;;;;;;;4.85;3.88;;;;;;;19.31;78.96;97786.88;5076294;28;20113;-81
2021/05/25 03:52:40;;;;;;;7.25;3.80;;;;;;;19.36;77.28;97783.72;5076110;28;20027;-81
2021/05/25 03:55:19;;;;;;;4.30;3.42;;;;;;;19.29;76.64;97783.44;5058265;28;20024;-81
2021/05/25 04:00:29;;;;;;;6.60;3.65;;;;;;;19.23;77.56;97792.16;5066596;28;20031;-81
2021/05/25 04:02:54;;;;;;;9.32;4.00;;;;;;;19.26;76.82;97785.56;5046771;28;20032;-81
2021/05/25 04:05:20;;;;;;;3.88;3.45;;;;;;;19.30;77.00;97790.59;5094310;28;20486;-81
2021/05/25 04:07:45;;;;;;;7.28;4.03;;;;;;;19.28;77.12;97787.16;5076653;28;20403;-80
2021/05/25 04:10:11;;;;;;;4.57;3.70;;;;;;;19.22;78.28;97800.44;5092455;28;20031;-80
2021/05/25 04:12:36;;;;;;;6.70;4.63;;;;;;;19.09;78.17;97779.03;5062812;28;20035;-81
2021/05/25 04:15:02;;;;;;;8.23;4.32;;;;;;;19.25;78.71;97797.44;5055568;28;20023;-80
2021/05/25 04:17:28;;;;;;;6.63;4.40;;;;;;;19.37;79.17;97812.56;5075433;28;20020;-81
2021/05/25 04:19:53;;;;;;;7.07;4.53;;;;;;;19.58;79.05;97815.16;5068642;28;20042;-81
2021/05/25 04:22:19;;;;;;;8.18;4.78;;;;;;;19.78;78.93;97822.28;5038571;28;20093;-80
2021/05/25 04:24:44;;;;;;;12.15;4.70;;;;;;;19.87;79.72;97835.00;5063574;28;20029;-79
2021/05/25 04:27:13;;;;;;;11.55;5.68;;;;;;;19.81;78.88;97843.72;5074056;28;20032;-87
2021/05/25 04:29:39;;;;;;;13.55;5.25;;;;;;;19.92;78.97;97847.13;5038533;28;20028;-84
2021/05/25 04:32:06;;;;;;;10.20;5.13;;;;;;;20.08;78.70;97845.66;5045579;28;20030;-83
2021/05/25 04:34:32;;;;;;;9.70;5.43;;;;;;;20.11;78.49;97856.25;5052735;28;20029;-82
2021/05/25 04:36:58;;;;;;;15.55;5.93;;;;;;;20.42;77.57;97855.03;5036980;28;20032;-83
2021/05/25 04:39:23;;;;;;;12.77;6.43;;;;;;;20.50;77.39;97853.28;5053079;28;20028;-83
2021/05/25 04:41:49;;;;;;;11.70;5.30;;;;;;;20.58;76.33;97855.25;5058262;28;20058;-84
2021/05/25 04:44:15;;;;;;;16.02;6.13;;;;;;;20.76;76.23;97858.03;5046031;28;20499;-80
2021/05/25 04:46:41;;;;;;;13.70;6.32;;;;;;;20.81;77.09;97864.72;5059426;28;20067;-81
2021/05/25 04:49:06;;;;;;;20.23;6.53;;;;;;;20.81;76.96;97864.72;5060047;28;20503;-82
2021/05/25 04:51:32;;;;;;;18.67;6.65;;;;;;;20.95;76.33;97875.09;5041806;28;20051;-84
2021/05/25 04:53:57;;;;;;;31.67;7.25;;;;;;;21.21;75.64;97879.84;5052959;28;20019;-84
2021/05/25 04:56:23;;;;;;;15.60;6.75;;;;;;;21.29;74.46;97882.66;5040936;28;20422;-82
2021/05/25 04:58:49;;;;;;;14.43;6.78;;;;;;;21.42;73.96;97870.41;5040769;28;20484;-82
2021/05/25 05:01:14;;;;;;;30.45;12.25;;;;;;;21.49;73.30;97874.22;5043104;28;20462;-82
2021/05/25 05:03:40;;;;;;;34.90;7.97;;;;;;;21.63;72.64;97881.84;5054002;28;20106;-82
2021/05/25 05:06:06;;;;;;;13.30;5.28;;;;;;;21.65;71.28;97889.00;5041157;28;20039;-82
2021/05/25 05:08:31;;;;;;;18.42;5.38;;;;;;;21.58;70.87;97883.31;5096064;28;20426;-82
2021/05/25 05:10:57;;;;;;;10.68;5.30;;;;;;;21.41;71.64;97881.47;5052056;28;20036;-82
2021/05/25 05:13:22;;;;;;;17.23;5.38;;;;;;;21.29;72.01;97882.66;5040590;28;20111;-83
2021/05/25 05:15:48;;;;;;;10.00;5.30;;;;;;;21.13;72.54;97845.25;5088476;28;20407;-82
2021/05/25 05:18:13;;;;;;;8.45;5.10;;;;;;;21.67;70.63;97878.81;5070520;28;20028;-83
2021/05/25 05:20:39;;;;;;;14.02;5.22;;;;;;;23.45;63.83;97887.13;5034953;28;20028;-82
2021/05/25 05:23:05;;;;;;;14.23;4.90;;;;;;;24.34;59.87;97895.41;5051941;28;20028;-82
2021/05/25 05:25:30;;;;;;;12.05;5.30;;;;;;;24.66;56.80;97889.91;5034817;28;20029;-82
2021/05/25 05:27:56;;;;;;;10.98;5.43;;;;;;;25.06;56.40;97891.69;5051826;28;20463;-82
2021/05/25 05:30:22;;;;;;;11.50;5.47;;;;;;;25.95;53.91;97902.16;5059863;28;20483;-82
2021/05/25 05:32:47;;;;;;;9.75;4.75;;;;;;;27.28;50.11;97896.78;5032402;28;20571;-82
2021/05/25 05:35:13;;;;;;;12.43;4.90;;;;;;;28.32;46.44;97898.19;5035047;28;20499;-82
2021/05/25 05:37:38;;;;;;;8.43;4.55;;;;;;;28.85;44.99;97911.38;5043574;28;20036;-83
2021/05/25 05:40:05;;;;;;;12.57;4.20;;;;;;;29.16;43.41;97919.22;5043376;28;20032;-84
2021/05/25 05:42:31;;;;;;;7.93;4.45;;;;;;;29.72;41.85;97905.31;5051144;28;20035;-84
2021/05/25 05:44:57;;;;;;;33.50;4.85;;;;;;;30.33;41.03;97909.69;5040209;28;20028;-83
2021/05/25 05:47:22;;;;;;;9.55;4.10;;;;;;;31.11;39.68;97911.63;5041823;28;20096;-83
2021/05/25 05:49:48;;;;;;;5.80;3.88;;;;;;;31.63;38.38;97910.66;5049981;28;20039;-82
2021/05/25 05:52:14;;;;;;;8.80;4.38;;;;;;;31.79;38.13;97906.53;5040349;28;20089;-83
2021/05/25 05:54:40;;;;;;;10.18;4.00;;;;;;;31.94;37.42;97911.78;5033199;28;20450;-82
2021/05/25 05:57:06;;;;;;;11.77;4.25;;;;;;;31.54;38.24;97917.50;5053055;28;20056;-83
2021/05/25 05:59:32;;;;;;;6.97;3.42;;;;;;;30.84;39.29;97912.72;5088605;28;20036;-83
2021/05/25 06:01:57;;;;;;;10.18;4.20;;;;;;;30.58;39.33;97885.09;5089609;28;20039;-83
2021/05/25 06:04:23;;;;;;;8.73;4.30;;;;;;;30.98;38.84;97911.66;5087867;28;20041;-82
2021/05/25 06:06:48;;;;;;;10.15;4.10;;;;;;;30.30;40.62;97912.88;5054686;28;20028;-82
2021/05/25 06:09:14;;;;;;;6.57;4.75;;;;;;;30.00;40.33;97890.31;5054887;28;20103;-82
2021/05/25 06:11:39;;;;;;;6.43;4.00;;;;;;;29.35;41.48;97901.09;5089482;28;20052;-82
2021/05/25 06:14:05;;;;;;;12.60;5.03;;;;;;;30.41;40.45;97892.97;5071750;28;20024;-83
2021/05/25 06:16:32;;;;;;;10.43;4.40;;;;;;;31.34;37.80;97891.81;5055114;28;20413;-82
2021/05/25 06:18:58;;;;;;;11.88;4.20;;;;;;;32.72;35.46;97891.91;5071861;28;20031;-82
2021/05/25 06:21:24;;;;;;;7.25;3.85;;;;;;;34.29;33.01;97902.28;5054886;28;20032;-82
2021/05/25 06:23:49;;;;;;;7.30;3.50;;;;;;;34.81;31.98;97900.59;5055236;28;20032;-83
2021/05/25 06:26:15;;;;;;;17.55;4.32;;;;;;;34.24;31.85;97885.47;5054398;28;20491;-83
2021/05/25 06:28:41;;;;;;;17.85;3.60;;;;;;;34.44;31.58;97891.56;5071187;28;20032;-82
2021/05/25 06:31:06;;;;;;;9.40;3.90;;;;;;;35.27;31.32;97897.00;5054247;28;20454;-83
2021/05/25 06:33:32;;;;;;;6.07;3.60;;;;;;;35.34;31.51;97897.72;5071635;28;20032;-82
2021/05/25 06:35:57;;;;;;;20.27;4.30;;;;;;;35.97;30.74;97891.28;5054947;28;20074;-82
2021/05/25 06:38:23;;;;;;;8.15;4.18;;;;;;;35.78;30.05;97897.03;5087869;28;20027;-83
2021/05/25 06:40:49;;;;;;;10.80;4.50;;;;;;;35.72;30.21;97888.81;5054475;28;20124;-83
2021/05/25 06:43:14;;;;;;;16.83;5.32;;;;;;;35.27;31.22;97892.28;5054296;28;20059;-83
2021/05/25 06:45:40;;;;;;;11.38;4.03;;;;;;;35.56;30.06;97875.66;5087660;28;20028;-83
2021/05/25 06:48:06;;;;;;;10.93;4.05;;;;;;;34.71;31.97;97878.09;5054565;28;20085;-83
2021/05/25 06:50:32;;;;;;;10.93;3.80;;;;;;;34.24;32.41;97874.34;5054809;28;20507;-83
2021/05/25 06:52:58;;;;;;;13.70;4.53;;;;;;;34.11;32.33;97874.56;5054496;28;20031;-83
2021/05/25 06:55:23;;;;;;;11.18;5.00;;;;;;;34.00;32.82;97867.81;5053839;28;20048;-83
2021/05/25 06:57:49;;;;;;;13.88;3.92;;;;;;;33.30;34.09;97861.03;5053989;28;20036;-82
2021/05/25 07:00:15;;;;;;;10.60;5.20;;;;;;;33.03;35.19;97863.25;5070745;28;20035;-82
2021/05/25 07:02:42;;;;;;;20.15;4.72;;;;;;;32.72;35.87;97847.56;5054249;28;20035;-83
2021/05/25 07:05:08;;;;;;;12.75;5.30;;;;;;;33.48;33.94;97843.53;5057733;28;20040;-83
2021/05/25 07:07:34;;;;;;;8.05;4.80;;;;;;;33.63;34.25;97855.09;5053999;28;20063;-83
2021/05/25 07:10:00;;;;;;;24.02;4.50;;;;;;;33.16;34.54;97848.41;5071007;28;20514;-83
2021/05/25 07:12:26;;;;;;;6.25;4.60;;;;;;;34.06;33.84;97855.78;5056683;28;20114;-83
2021/05/25 07:14:52;;;;;;;11.77;4.43;;;;;;;35.00;33.05;97854.03;5057823;28;20035;-83
2021/05/25 07:17:17;;;;;;;11.35;4.35;;;;;;;35.50;31.60;97852.41;5074702;28;20036;-82
2021/05/25 07:19:43;;;;;;;5.68;3.75;;;;;;;36.19;29.96;97840.22;5074278;28;20055;-84
2021/05/25 07:22:09;;;;;;;10.38;4.03;;;;;;;34.68;32.16;97826.59;5057679;28;20532;-84
2021/05/25 07:24:34;;;;;;;12.80;3.97;;;;;;;35.77;31.38;97834.09;5057645;28;20047;-84
2021/05/25 07:27:00;;;;;;;10.90;4.13;;;;;;;35.95;31.40;97834.97;5057487;28;20024;-84
2021/05/25 07:29:26;;;;;;;11.05;3.70;;;;;;;35.90;30.64;97830.16;5057916;28;20058;-84
2021/05/25 07:31:52;;;;;;;10.52;4.70;;;;;;;36.91;29.77;97835.63;5074091;28;20072;-83
2021/05/25 07:34:18;;;;;;;9.77;4.10;;;;;;;38.09;29.57;97833.28;5058023;28;20031;-83
2021/05/25 07:36:46;;;;;;;9.07;4.35;;;;;;;37.17;29.48;97824.81;5057539;28;20039;-84
2021/05/25 07:39:12;;;;;;;9.25;4.32;;;;;;;36.06;30.55;97822.94;5058189;28;20036;-83
2021/05/25 07:41:38;;;;;;;6.60;4.60;;;;;;;37.22;30.46;97825.78;5074489;28;20038;-84
2021/05/25 07:44:04;;;;;;;33.97;5.55;;;;;;;38.67;27.92;97836.09;5090764;28;20411;-82
2021/05/25 07:46:30;;;;;;;7.65;3.88;;;;;;;38.74;27.01;97828.31;5091036;28;20032;-84
2021/05/25 07:48:56;;;;;;;9.50;3.80;;;;;;;38.34;27.61;97812.03;5057271;28;20038;-84
2021/05/25 07:51:22;;;;;;;13.68;5.03;;;;;;;38.75;27.34;97829.19;5074252;28;20035;-83
2021/05/25 07:53:47;;;;;;;18.25;4.90;;;;;;;37.97;28.28;97825.91;5073902;28;20059;-83
2021/05/25 07:56:13;;;;;;;10.93;3.40;;;;;;;37.93;28.94;97829.50;5090163;28;20100;-83
2021/05/25 07:58:39;;;;;;;39.65;4.85;;;;;;;38.55;27.36;97821.44;5057045;28;20416;-83
2021/05/25 08:01:05;;;;;;;100.80;8.18;;;;;;;38.51;27.45;97814.72;5056576;28;20032;-83
2021/05/25 08:03:31;;;;;;;7.72;3.47;;;;;;;37.54;27.75;97816.69;5073333;28;20549;-84
2021/05/25 08:06:00;;;;;;;32.05;5.78;;;;;;;37.68;28.23;97818.84;5072893;28;20028;-84
2021/05/25 08:08:27;;;;;;;13.30;4.05;;;;;;;36.57;29.51;97820.00;5057291;28;20130;-83
2021/05/25 08:10:52;;;;;;;14.82;3.53;;;;;;;36.40;30.05;97813.53;5073063;28;20028;-82
2021/05/25 08:13:18;;;;;;;7.57;3.03;;;;;;;36.65;30.69;97813.13;5057117;28;20092;-83
2021/05/25 08:15:44;;;;;;;5.93;3.50;;;;;;;36.07;29.92;97814.34;5056541;28;20031;-83
2021/05/25 08:20:51;;;;;;;5.30;3.10;;;;;;;34.22;31.81;97793.16;5075176;28;20032;-83
2021/05/25 08:23:16;;;;;;;4.97;3.30;;;;;;;34.07;33.56;97798.28;5055513;28;20434;-83
2021/05/25 08:25:43;;;;;;;8.20;4.10;;;;;;;33.21;36.49;97791.16;5056150;28;20031;-83
2021/05/25 08:28:11;;;;;;;10.30;4.53;;;;;;;33.26;36.72;97790.44;5056206;28;20032;-82
2021/05/25 08:30:40;;;;;;;8.32;4.03;;;;;;;33.94;35.00;97790.16;5089728;28;20497;-82
2021/05/25 08:33:07;;;;;;;4.50;3.28;;;;;;;34.99;32.41;97782.81;5091470;28;20031;-82
2021/05/25 08:35:36;;;;;;;4.25;2.90;;;;;;;35.24;31.03;97772.25;5058169;28;20102;-82
2021/05/25 08:38:04;;;;;;;7.35;2.80;;;;;;;35.37;30.81;97763.63;5058847;28;20028;-82
2021/05/25 08:40:31;;;;;;;4.22;2.92;;;;;;;34.68;32.32;97771.00;5075172;28;20028;-82
2021/05/25 08:42:58;;;;;;;5.82;3.10;;;;;;;34.39;31.36;97763.59;5075101;28;20024;-82
2021/05/25 08:45:24;;;;;;;4.50;3.08;;;;;;;33.05;33.96;97746.53;5074921;28;20024;-82
2021/05/25 08:47:51;;;;;;;6.03;3.03;;;;;;;31.92;36.47;97750.63;5075444;28;20051;-82
2021/05/25 08:50:19;;;;;;;7.55;3.70;;;;;;;31.57;38.10;97742.78;5057962;28;20497;-82
2021/05/25 08:52:45;;;;;;;14.27;3.95;;;;;;;31.56;39.08;97745.78;5058253;28;20048;-82
2021/05/25 08:55:12;;;;;;;9.27;3.75;;;;;;;32.08;37.52;97753.72;5057749;28;20048;-82
2021/05/25 08:57:37;;;;;;;15.32;3.45;;;;;;;31.76;38.23;97746.47;5074784;28;20107;-82
2021/05/25 09:00:06;;;;;;;4.88;3.10;;;;;;;32.43;36.76;97753.16;5058059;28;20051;-82
2021/05/25 09:02:31;;;;;;;4.50;2.85;;;;;;;32.42;36.18;97748.72;5091967;28;20514;-82
2021/05/25 09:05:03;;;;;;;5.57;3.42;;;;;;;32.60;35.43;97759.84;5057695;28;20032;-82
2021/05/25 09:07:49;;;;;;;;;;;;;;;32.34;35.92;97755.38;5058610;28;20529;-82
2021/05/25 09:10:37;;;;;;;5.18;2.80;;;;;;;32.37;36.75;97751.31;5092084;28;20390;-82
2021/05/25 09:13:04;;;;;;;4.45;3.03;;;;;;;33.35;34.70;97755.75;5074184;28;20081;-82
2021/05/25 09:15:31;;;;;;;6.50;3.15;;;;;;;32.55;35.51;97754.94;5074357;28;20449;-81
2021/05/25 09:18:23;;;;;;;3.20;2.90;;;;;;;33.15;34.64;97757.97;5074316;28;20138;-81
2021/05/25 09:21:02;;;;;;;5.75;2.97;;;;;;;33.37;34.16;97756.38;5074952;28;20464;-81
2021/05/25 09:23:42;;;;;;;6.00;3.30;;;;;;;33.27;34.79;97761.63;5057329;28;20499;-82
2021/05/25 09:26:13;;;;;;;6.60;2.88;;;;;;;33.67;34.25;97748.94;5073746;28;20028;-81
2021/05/25 09:28:55;;;;;;;7.80;3.08;;;;;;;34.01;33.42;97768.69;5074177;28;20174;-81
2021/05/25 09:31:48;;;;;;;11.82;2.78;;;;;;;35.21;33.26;97769.97;5073995;28;20032;-82
2021/05/25 09:34:15;;;;;;;11.13;2.95;;;;;;;35.46;30.86;97767.72;5057265;28;20479;-82
2021/05/25 09:37:04;;;;;;;4.32;2.83;;;;;;;35.28;31.04;97754.00;5074205;28;20100;-82
2021/05/25 09:39:32;;;;;;;10.80;3.20;;;;;;;35.21;31.64;97764.41;5090974;28;20445;-81
2021/05/25 09:42:02;;;;;;;5.32;3.22;;;;;;;34.98;31.83;97758.88;5073965;28;20107;-81
2021/05/25 09:44:28;;;;;;;3.92;2.70;;;;;;;35.43;31.20;97753.44;5074105;28;20124;-82
2021/05/25 09:46:54;;;;;;;7.32;2.92;;;;;;;35.70;30.75;97758.19;5074066;28;20084;-81
2021/05/25 09:49:20;;;;;;;9.85;3.08;;;;;;;35.49;31.30;97755.22;5074125;28;20024;-82
2021/05/25 09:51:46;;;;;;;8.68;3.17;;;;;;;36.00;31.98;97763.47;5057410;28;20118;-82
2021/05/25 09:54:23;;;;;;;5.78;2.92;;;;;;;35.79;30.99;97755.84;5057379;28;20118;-82
2021/05/25 09:56:59;;;;;;;4.95;2.75;;;;;;;35.55;31.52;97748.66;5057312;28;20073;-82
2021/05/25 09:59:41;;;;;;;4.78;2.95;;;;;;;35.44;31.15;97747.63;5057145;28;20502;-81
2021/05/25 10:02:22;;;;;;;10.90;3.35;;;;;;;33.92;33.47;97731.25;5074197;28;20024;-81
2021/05/25 10:05:05;;;;;;;4.63;3.05;;;;;;;31.68;37.08;97722.69;5073785;28;20115;-82
2021/05/25 10:07:33;;;;;;;7.55;3.50;;;;;;;30.85;39.41;97704.41;5056983;28;20055;-82
2021/05/25 10:09:59;;;;;;;9.52;3.53;;;;;;;30.81;39.29;97707.81;5074614;28;20387;-82
2021/05/25 10:12:29;;;;;;;9.02;3.22;;;;;;;30.82;39.88;97710.38;5073653;28;20032;-83
2021/05/25 10:14:55;;;;;;;6.35;3.75;;;;;;;30.68;41.13;97708.72;5058883;28;20111;-82
2021/05/25 10:20:02;;;;;;;14.48;3.75;;;;;;;30.73;40.91;97694.25;5076675;28;20051;-81
2021/05/25 10:22:27;;;;;;;5.97;3.40;;;;;;;31.68;39.29;97699.72;5056782;28;20032;-83
2021/05/25 10:24:54;;;;;;;6.78;3.10;;;;;;;32.86;36.90;97703.25;5073979;28;20110;-80
2021/05/25 10:27:19;;;;;;;4.30;3.08;;;;;;;32.62;36.85;97708.66;5073929;28;20453;-82
2021/05/25 10:29:45;;;;;;;5.88;3.95;;;;;;;31.83;37.70;97689.16;5073693;28;20032;-82
2021/05/25 10:32:25;;;;;;;10.25;3.45;;;;;;;31.10;39.20;97699.00;5090574;28;20577;-81
2021/05/25 10:34:53;;;;;;;6.43;3.05;;;;;;;30.80;39.93;97682.09;5073546;28;20486;-82
2021/05/25 10:37:20;;;;;;;5.38;3.40;;;;;;;30.54;41.54;97691.34;5091609;28;20498;-82
2021/05/25 10:39:50;;;;;;;5.95;3.28;;;;;;;30.60;41.09;97679.44;5090530;28;20460;-82
2021/05/25 10:42:19;;;;;;;9.18;3.17;;;;;;;31.01;40.49;97692.03;5056725;28;20450;-82
2021/05/25 10:44:55;;;;;;;4.63;2.75;;;;;;;31.15;41.52;97693.66;5073241;28;20056;-82
2021/05/25 10:47:26;;;;;;;7.15;3.05;;;;;;;32.60;37.68;97685.03;5094058;28;20035;-82
2021/05/25 10:50:25;;;;;;;4.97;2.95;;;;;;;34.36;34.47;97693.75;5061236;28;20032;-82
2021/05/25 10:52:54;;;;;;;3.90;2.70;;;;;;;35.69;32.48;97686.03;5077520;28;20036;-82
2021/05/25 10:55:38;;;;;;;9.60;3.20;;;;;;;36.53;30.79;97684.13;5077306;28;20122;-83
2021/05/25 10:58:30;;;;;;;4.15;2.78;;;;;;;36.64;30.73;97680.41;5060961;28;20032;-82
2021/05/25 11:00:55;;;;;;;;;;;;;;;36.40;30.71;97683.34;5091008;28;20024;-82
2021/05/25 11:03:21;;;;;;;5.97;3.13;;;;;;;35.21;32.84;97695.69;5091343;28;20351;-82
2021/05/25 11:05:58;;;;;;;6.78;3.47;;;;;;;34.69;33.48;97692.06;5060331;28;20032;-82
2021/05/25 11:08:29;;;;;;;5.82;3.30;;;;;;;33.89;34.21;97682.59;5060561;28;20054;-82
2021/05/25 11:11:15;;;;;;;8.93;3.50;;;;;;;34.21;34.25;97674.78;5060386;28;20032;-83
2021/05/25 11:13:49;;;;;;;4.90;2.75;;;;;;;35.33;33.48;97678.94;5059578;28;20034;-83
2021/05/25 11:16:32;;;;;;;4.85;2.65;;;;;;;36.01;32.52;97680.75;5060075;28;20416;-84
2021/05/25 11:19:06;;;;;;;7.93;3.00;;;;;;;37.21;31.76;97686.44;5059926;28;20032;-84
2021/05/25 11:24:30;;;;;;;6.88;2.97;;;;;;;37.00;29.79;97681.72;5094532;28;20432;-84
2021/05/25 11:27:15;;;;;;;6.95;3.30;;;;;;;36.56;31.27;97687.25;5076386;28;20021;-84
2021/05/25 11:29:41;;;;;;;7.13;3.00;;;;;;;37.07;30.82;97680.41;5059759;28;20020;-84
2021/05/25 11:32:13;;;;;;;3.47;3.10;;;;;;;37.15;29.70;97681.91;5076531;28;20490;-84
2021/05/25 11:34:40;;;;;;;6.20;3.33;;;;;;;37.07;29.63;97679.59;5059873;28;21052;-84
2021/05/25 11:37:09;;;;;;;5.30;3.03;;;;;;;36.62;30.14;97663.91;5109961;28;20055;-84
2021/05/25 11:39:35;;;;;;;10.65;3.20;;;;;;;37.26;30.43;97665.00;5059231;28;20181;-83
2021/05/25 11:42:05;;;;;;;13.68;3.17;;;;;;;37.74;28.95;97657.72;5059576;28;20023;-82